<?xml version="1.0" encoding="UTF-8" standalone="no" ?>
<gpx xmlns="http://www.topografix.com/GPX/1/1" xmlns:xsi="http://www.w3.org/2001/XMLSchema-instance" xsi:schemaLocation="http://www.topografix.com/GPX/1/1 http://www.topografix.com/GPX/1/1/gpx.xsd" version="1.1" creator="VisuGPX - https://www.visugpx.com">
  <metadata>
    <name>quatrième entrainement</name>
    <desc><![CDATA[départ rue de la largue, piste cyclable à l'aller et retour par le bois.]]></desc>
  </metadata>
  <wpt lat="47.54162" lon="7.17046">
    <ele>398.79</ele>
    <name><![CDATA[0000019]]></name>
    <type><![CDATA[Point de départ]]></type>
  </wpt>
  <wpt lat="47.54143" lon="7.17072">
    <ele>368.79</ele>
    <name><![CDATA[0000020]]></name>
    <desc><![CDATA[<p><br /><h3>Nom: Segment: 1</h3><br />Heure de départ: 02/21/2018 12:30<br/>Heure d'arrivée: 02/21/2018 13:24<br/>Distance: 6,1km (00:53)<br/>Temps déplacement: 00:52<br/>Vitesse moyenne: 6,84 km/h<br/>Vitesse moyenne mouv.: 6,89 km/h<br/>Vitesse Max.: 9,05 km/h<br/>Altitude minimale: 358 m<br/>Altitude maximale: 510 m<br/>Vitesse de montée: 469,7 m/h<br/>Vitesse de descente: -463,6 m/h<br/>Gain d'altitude: 181 m<br/>Perte d'altitude: -211 m<br/>Temps de montée: 00:23<br/>Temps de descente: 00:27<br/></p>]]></desc>
    <type><![CDATA[Point d'arrivée]]></type>
  </wpt>
  <trk>
    <name><![CDATA[2018-02-21 12:30]]></name>
    <desc><![CDATA[<p>Heure de départ: 02/21/2018 12:30<br/>Heure d'arrivée: 02/21/2018 13:24<br/>Distance: 6,1 km (00:53)<br/>Temps déplacement: 00:52<br/>Vitesse moyenne: 6,84 km/h<br/>Vitesse moyenne mouv.: 6,96 km/h<br/>Vitesse Max.: 9,05 km/h<br/>Altitude minimale: 358 m<br/>Altitude maximale: 510 m<br/>Vitesse de montée: 362,9 m/h<br/>Vitesse de descente: -384,1 m/h<br/>Gain d'altitude: 152 m<br/>Perte d'altitude: -169 m<br/>Temps de montée: 00:25<br/>Temps de descente: 00:26<br/></p><hr align="center" width="480" style="height: 2px; width: 517px"/>]]></desc>
    <trkseg>
      <trkpt lat="47.54162" lon="7.17046">
        <ele>398.79</ele>
        <time>2018-02-21T11:30:14Z</time>
      </trkpt>
      <trkpt lat="47.54147" lon="7.17068">
        <ele>371.95</ele>
        <time>2018-02-21T11:30:39Z</time>
      </trkpt>
      <trkpt lat="47.54201" lon="7.17128">
        <ele>491.71</ele>
        <time>2018-02-21T11:30:54Z</time>
      </trkpt>
      <trkpt lat="47.54182" lon="7.17107">
        <ele>510.67</ele>
        <time>2018-02-21T11:31:19Z</time>
      </trkpt>
      <trkpt lat="47.54151" lon="7.17085">
        <ele>398.05</ele>
        <time>2018-02-21T11:31:21Z</time>
      </trkpt>
      <trkpt lat="47.54143" lon="7.17061">
        <ele>374.77</ele>
        <time>2018-02-21T11:31:43Z</time>
      </trkpt>
      <trkpt lat="47.54124" lon="7.17068">
        <ele>374.79</ele>
        <time>2018-02-21T11:32:00Z</time>
      </trkpt>
      <trkpt lat="47.54107" lon="7.17086">
        <ele>375.79</ele>
        <time>2018-02-21T11:32:14Z</time>
      </trkpt>
      <trkpt lat="47.54093" lon="7.17104">
        <ele>374.79</ele>
        <time>2018-02-21T11:32:28Z</time>
      </trkpt>
      <trkpt lat="47.54074" lon="7.17107">
        <ele>373.82</ele>
        <time>2018-02-21T11:32:44Z</time>
      </trkpt>
      <trkpt lat="47.54063" lon="7.17133">
        <ele>373.79</ele>
        <time>2018-02-21T11:32:56Z</time>
      </trkpt>
      <trkpt lat="47.54053" lon="7.17157">
        <ele>372.79</ele>
        <time>2018-02-21T11:33:08Z</time>
      </trkpt>
      <trkpt lat="47.54041" lon="7.17182">
        <ele>372.79</ele>
        <time>2018-02-21T11:33:20Z</time>
      </trkpt>
      <trkpt lat="47.54031" lon="7.17206">
        <ele>371.8</ele>
        <time>2018-02-21T11:33:32Z</time>
      </trkpt>
      <trkpt lat="47.54018" lon="7.17227">
        <ele>371.79</ele>
        <time>2018-02-21T11:33:44Z</time>
      </trkpt>
      <trkpt lat="47.54005" lon="7.17246">
        <ele>372.09</ele>
        <time>2018-02-21T11:33:56Z</time>
      </trkpt>
      <trkpt lat="47.53986" lon="7.17238">
        <ele>371.58</ele>
        <time>2018-02-21T11:34:08Z</time>
      </trkpt>
      <trkpt lat="47.53966" lon="7.1723">
        <ele>371.76</ele>
        <time>2018-02-21T11:34:20Z</time>
      </trkpt>
      <trkpt lat="47.53946" lon="7.17223">
        <ele>372.76</ele>
        <time>2018-02-21T11:34:32Z</time>
      </trkpt>
      <trkpt lat="47.53929" lon="7.17239">
        <ele>372.79</ele>
        <time>2018-02-21T11:34:44Z</time>
      </trkpt>
      <trkpt lat="47.53915" lon="7.1726">
        <ele>373.49</ele>
        <time>2018-02-21T11:34:56Z</time>
      </trkpt>
      <trkpt lat="47.53901" lon="7.17283">
        <ele>374.08</ele>
        <time>2018-02-21T11:35:08Z</time>
      </trkpt>
      <trkpt lat="47.53891" lon="7.17309">
        <ele>375.47</ele>
        <time>2018-02-21T11:35:20Z</time>
      </trkpt>
      <trkpt lat="47.53879" lon="7.17334">
        <ele>373.79</ele>
        <time>2018-02-21T11:35:32Z</time>
      </trkpt>
      <trkpt lat="47.5387" lon="7.17359">
        <ele>374.49</ele>
        <time>2018-02-21T11:35:44Z</time>
      </trkpt>
      <trkpt lat="47.53864" lon="7.17386">
        <ele>375.49</ele>
        <time>2018-02-21T11:35:56Z</time>
      </trkpt>
      <trkpt lat="47.53883" lon="7.174">
        <ele>374.88</ele>
        <time>2018-02-21T11:36:08Z</time>
      </trkpt>
      <trkpt lat="47.53898" lon="7.17417">
        <ele>374.79</ele>
        <time>2018-02-21T11:36:18Z</time>
      </trkpt>
      <trkpt lat="47.5391" lon="7.17441">
        <ele>374.79</ele>
        <time>2018-02-21T11:36:30Z</time>
      </trkpt>
      <trkpt lat="47.5392" lon="7.17466">
        <ele>374.79</ele>
        <time>2018-02-21T11:36:42Z</time>
      </trkpt>
      <trkpt lat="47.53931" lon="7.17493">
        <ele>375.76</ele>
        <time>2018-02-21T11:36:54Z</time>
      </trkpt>
      <trkpt lat="47.53944" lon="7.17515">
        <ele>376.52</ele>
        <time>2018-02-21T11:37:06Z</time>
      </trkpt>
      <trkpt lat="47.53957" lon="7.17535">
        <ele>374.82</ele>
        <time>2018-02-21T11:37:16Z</time>
      </trkpt>
      <trkpt lat="47.53972" lon="7.17555">
        <ele>375.09</ele>
        <time>2018-02-21T11:37:28Z</time>
      </trkpt>
      <trkpt lat="47.53986" lon="7.17578">
        <ele>374.88</ele>
        <time>2018-02-21T11:37:40Z</time>
      </trkpt>
      <trkpt lat="47.54002" lon="7.17599">
        <ele>374.97</ele>
        <time>2018-02-21T11:37:52Z</time>
      </trkpt>
      <trkpt lat="47.54017" lon="7.1762">
        <ele>375.76</ele>
        <time>2018-02-21T11:38:04Z</time>
      </trkpt>
      <trkpt lat="47.54033" lon="7.17641">
        <ele>376.79</ele>
        <time>2018-02-21T11:38:16Z</time>
      </trkpt>
      <trkpt lat="47.54047" lon="7.1766">
        <ele>376.79</ele>
        <time>2018-02-21T11:38:40Z</time>
      </trkpt>
      <trkpt lat="47.54063" lon="7.17675">
        <ele>377.49</ele>
        <time>2018-02-21T11:38:52Z</time>
      </trkpt>
      <trkpt lat="47.54081" lon="7.17684">
        <ele>379.46</ele>
        <time>2018-02-21T11:39:06Z</time>
      </trkpt>
      <trkpt lat="47.54097" lon="7.17664">
        <ele>378.81</ele>
        <time>2018-02-21T11:39:20Z</time>
      </trkpt>
      <trkpt lat="47.54108" lon="7.17639">
        <ele>381.46</ele>
        <time>2018-02-21T11:39:34Z</time>
      </trkpt>
      <trkpt lat="47.5412" lon="7.17616">
        <ele>381.79</ele>
        <time>2018-02-21T11:39:46Z</time>
      </trkpt>
      <trkpt lat="47.54135" lon="7.17595">
        <ele>382.78</ele>
        <time>2018-02-21T11:39:56Z</time>
      </trkpt>
      <trkpt lat="47.54146" lon="7.1757">
        <ele>383.49</ele>
        <time>2018-02-21T11:40:08Z</time>
      </trkpt>
      <trkpt lat="47.54158" lon="7.17549">
        <ele>383.79</ele>
        <time>2018-02-21T11:40:20Z</time>
      </trkpt>
      <trkpt lat="47.54173" lon="7.17524">
        <ele>382.8</ele>
        <time>2018-02-21T11:40:32Z</time>
      </trkpt>
      <trkpt lat="47.54187" lon="7.17504">
        <ele>384.48</ele>
        <time>2018-02-21T11:40:44Z</time>
      </trkpt>
      <trkpt lat="47.54199" lon="7.17483">
        <ele>383.79</ele>
        <time>2018-02-21T11:40:54Z</time>
      </trkpt>
      <trkpt lat="47.54211" lon="7.17462">
        <ele>382.88</ele>
        <time>2018-02-21T11:41:04Z</time>
      </trkpt>
      <trkpt lat="47.54227" lon="7.17434">
        <ele>382.06</ele>
        <time>2018-02-21T11:41:19Z</time>
      </trkpt>
      <trkpt lat="47.5424" lon="7.17412">
        <ele>383.49</ele>
        <time>2018-02-21T11:41:29Z</time>
      </trkpt>
      <trkpt lat="47.54255" lon="7.17391">
        <ele>383.81</ele>
        <time>2018-02-21T11:41:41Z</time>
      </trkpt>
      <trkpt lat="47.54269" lon="7.17367">
        <ele>382.79</ele>
        <time>2018-02-21T11:41:53Z</time>
      </trkpt>
      <trkpt lat="47.54282" lon="7.17347">
        <ele>383.49</ele>
        <time>2018-02-21T11:42:03Z</time>
      </trkpt>
      <trkpt lat="47.54297" lon="7.17331">
        <ele>386.45</ele>
        <time>2018-02-21T11:42:15Z</time>
      </trkpt>
      <trkpt lat="47.54307" lon="7.17309">
        <ele>386.81</ele>
        <time>2018-02-21T11:42:25Z</time>
      </trkpt>
      <trkpt lat="47.54321" lon="7.17286">
        <ele>388.05</ele>
        <time>2018-02-21T11:42:37Z</time>
      </trkpt>
      <trkpt lat="47.54335" lon="7.17264">
        <ele>387.79</ele>
        <time>2018-02-21T11:42:47Z</time>
      </trkpt>
      <trkpt lat="47.54347" lon="7.1724">
        <ele>386.82</ele>
        <time>2018-02-21T11:42:57Z</time>
      </trkpt>
      <trkpt lat="47.54357" lon="7.17217">
        <ele>386.06</ele>
        <time>2018-02-21T11:43:07Z</time>
      </trkpt>
      <trkpt lat="47.54372" lon="7.17195">
        <ele>384.12</ele>
        <time>2018-02-21T11:43:17Z</time>
      </trkpt>
      <trkpt lat="47.54382" lon="7.17172">
        <ele>381.82</ele>
        <time>2018-02-21T11:43:29Z</time>
      </trkpt>
      <trkpt lat="47.54395" lon="7.17154">
        <ele>380.77</ele>
        <time>2018-02-21T11:43:41Z</time>
      </trkpt>
      <trkpt lat="47.5441" lon="7.17132">
        <ele>381.84</ele>
        <time>2018-02-21T11:43:51Z</time>
      </trkpt>
      <trkpt lat="47.54422" lon="7.17111">
        <ele>381.79</ele>
        <time>2018-02-21T11:43:59Z</time>
      </trkpt>
      <trkpt lat="47.54433" lon="7.17089">
        <ele>381.5</ele>
        <time>2018-02-21T11:44:11Z</time>
      </trkpt>
      <trkpt lat="47.54449" lon="7.17067">
        <ele>381.09</ele>
        <time>2018-02-21T11:44:23Z</time>
      </trkpt>
      <trkpt lat="47.54461" lon="7.17045">
        <ele>382.67</ele>
        <time>2018-02-21T11:44:33Z</time>
      </trkpt>
      <trkpt lat="47.54475" lon="7.17025">
        <ele>384.4</ele>
        <time>2018-02-21T11:44:47Z</time>
      </trkpt>
      <trkpt lat="47.5449" lon="7.17006">
        <ele>385.79</ele>
        <time>2018-02-21T11:44:59Z</time>
      </trkpt>
      <trkpt lat="47.54505" lon="7.16986">
        <ele>385.79</ele>
        <time>2018-02-21T11:45:11Z</time>
      </trkpt>
      <trkpt lat="47.54519" lon="7.16968">
        <ele>383.82</ele>
        <time>2018-02-21T11:45:21Z</time>
      </trkpt>
      <trkpt lat="47.54534" lon="7.1695">
        <ele>382.8</ele>
        <time>2018-02-21T11:45:33Z</time>
      </trkpt>
      <trkpt lat="47.54547" lon="7.16929">
        <ele>382.79</ele>
        <time>2018-02-21T11:45:43Z</time>
      </trkpt>
      <trkpt lat="47.54562" lon="7.16908">
        <ele>385.39</ele>
        <time>2018-02-21T11:45:55Z</time>
      </trkpt>
      <trkpt lat="47.54578" lon="7.16888">
        <ele>386.09</ele>
        <time>2018-02-21T11:46:07Z</time>
      </trkpt>
      <trkpt lat="47.54594" lon="7.16868">
        <ele>385.79</ele>
        <time>2018-02-21T11:46:17Z</time>
      </trkpt>
      <trkpt lat="47.5461" lon="7.16846">
        <ele>384.79</ele>
        <time>2018-02-21T11:46:27Z</time>
      </trkpt>
      <trkpt lat="47.54624" lon="7.16825">
        <ele>384.77</ele>
        <time>2018-02-21T11:46:37Z</time>
      </trkpt>
      <trkpt lat="47.54638" lon="7.16807">
        <ele>384.79</ele>
        <time>2018-02-21T11:46:47Z</time>
      </trkpt>
      <trkpt lat="47.54656" lon="7.16791">
        <ele>384.79</ele>
        <time>2018-02-21T11:46:59Z</time>
      </trkpt>
      <trkpt lat="47.54669" lon="7.16766">
        <ele>383.52</ele>
        <time>2018-02-21T11:47:09Z</time>
      </trkpt>
      <trkpt lat="47.54683" lon="7.16746">
        <ele>384.09</ele>
        <time>2018-02-21T11:47:25Z</time>
      </trkpt>
      <trkpt lat="47.54699" lon="7.16728">
        <ele>383.59</ele>
        <time>2018-02-21T11:47:35Z</time>
      </trkpt>
      <trkpt lat="47.54715" lon="7.1671">
        <ele>382.88</ele>
        <time>2018-02-21T11:47:47Z</time>
      </trkpt>
      <trkpt lat="47.5473" lon="7.16687">
        <ele>381.18</ele>
        <time>2018-02-21T11:47:57Z</time>
      </trkpt>
      <trkpt lat="47.54746" lon="7.16667">
        <ele>383.49</ele>
        <time>2018-02-21T11:48:11Z</time>
      </trkpt>
      <trkpt lat="47.54762" lon="7.1665">
        <ele>383.79</ele>
        <time>2018-02-21T11:48:21Z</time>
      </trkpt>
      <trkpt lat="47.54777" lon="7.16632">
        <ele>382.8</ele>
        <time>2018-02-21T11:48:31Z</time>
      </trkpt>
      <trkpt lat="47.54792" lon="7.16611">
        <ele>381.8</ele>
        <time>2018-02-21T11:48:39Z</time>
      </trkpt>
      <trkpt lat="47.54809" lon="7.16598">
        <ele>380.09</ele>
        <time>2018-02-21T11:48:53Z</time>
      </trkpt>
      <trkpt lat="47.54827" lon="7.16583">
        <ele>377.82</ele>
        <time>2018-02-21T11:49:05Z</time>
      </trkpt>
      <trkpt lat="47.54842" lon="7.16568">
        <ele>375.91</ele>
        <time>2018-02-21T11:49:13Z</time>
      </trkpt>
      <trkpt lat="47.54857" lon="7.16553">
        <ele>375.07</ele>
        <time>2018-02-21T11:49:21Z</time>
      </trkpt>
      <trkpt lat="47.54872" lon="7.16538">
        <ele>372.91</ele>
        <time>2018-02-21T11:49:31Z</time>
      </trkpt>
      <trkpt lat="47.54889" lon="7.16525">
        <ele>372.79</ele>
        <time>2018-02-21T11:49:41Z</time>
      </trkpt>
      <trkpt lat="47.54909" lon="7.16516">
        <ele>372.85</ele>
        <time>2018-02-21T11:49:55Z</time>
      </trkpt>
      <trkpt lat="47.54926" lon="7.16507">
        <ele>374.46</ele>
        <time>2018-02-21T11:50:05Z</time>
      </trkpt>
      <trkpt lat="47.54944" lon="7.16497">
        <ele>374.09</ele>
        <time>2018-02-21T11:50:17Z</time>
      </trkpt>
      <trkpt lat="47.54962" lon="7.16486">
        <ele>374.76</ele>
        <time>2018-02-21T11:50:29Z</time>
      </trkpt>
      <trkpt lat="47.54981" lon="7.1648">
        <ele>375.49</ele>
        <time>2018-02-21T11:50:39Z</time>
      </trkpt>
      <trkpt lat="47.54999" lon="7.16475">
        <ele>375.79</ele>
        <time>2018-02-21T11:50:51Z</time>
      </trkpt>
      <trkpt lat="47.55018" lon="7.16469">
        <ele>374.8</ele>
        <time>2018-02-21T11:51:01Z</time>
      </trkpt>
      <trkpt lat="47.55038" lon="7.16459">
        <ele>376.19</ele>
        <time>2018-02-21T11:51:11Z</time>
      </trkpt>
      <trkpt lat="47.55059" lon="7.16456">
        <ele>375.82</ele>
        <time>2018-02-21T11:51:23Z</time>
      </trkpt>
      <trkpt lat="47.55078" lon="7.16458">
        <ele>374.09</ele>
        <time>2018-02-21T11:51:35Z</time>
      </trkpt>
      <trkpt lat="47.55098" lon="7.16453">
        <ele>373.78</ele>
        <time>2018-02-21T11:51:47Z</time>
      </trkpt>
      <trkpt lat="47.55117" lon="7.16448">
        <ele>372.8</ele>
        <time>2018-02-21T11:51:59Z</time>
      </trkpt>
      <trkpt lat="47.55137" lon="7.16439">
        <ele>374.75</ele>
        <time>2018-02-21T11:52:09Z</time>
      </trkpt>
      <trkpt lat="47.55157" lon="7.16436">
        <ele>376.75</ele>
        <time>2018-02-21T11:52:17Z</time>
      </trkpt>
      <trkpt lat="47.55177" lon="7.1643">
        <ele>377.76</ele>
        <time>2018-02-21T11:52:27Z</time>
      </trkpt>
      <trkpt lat="47.55197" lon="7.16431">
        <ele>378.7</ele>
        <time>2018-02-21T11:52:39Z</time>
      </trkpt>
      <trkpt lat="47.55218" lon="7.16427">
        <ele>377.86</ele>
        <time>2018-02-21T11:52:49Z</time>
      </trkpt>
      <trkpt lat="47.55239" lon="7.16425">
        <ele>376.18</ele>
        <time>2018-02-21T11:53:01Z</time>
      </trkpt>
      <trkpt lat="47.55258" lon="7.16409">
        <ele>374.87</ele>
        <time>2018-02-21T11:53:13Z</time>
      </trkpt>
      <trkpt lat="47.55267" lon="7.16384">
        <ele>373.88</ele>
        <time>2018-02-21T11:53:23Z</time>
      </trkpt>
      <trkpt lat="47.55277" lon="7.16355">
        <ele>372.79</ele>
        <time>2018-02-21T11:53:33Z</time>
      </trkpt>
      <trkpt lat="47.55288" lon="7.16333">
        <ele>371.1</ele>
        <time>2018-02-21T11:53:43Z</time>
      </trkpt>
      <trkpt lat="47.55304" lon="7.16318">
        <ele>370.79</ele>
        <time>2018-02-21T11:53:53Z</time>
      </trkpt>
      <trkpt lat="47.55325" lon="7.1631">
        <ele>368.12</ele>
        <time>2018-02-21T11:54:05Z</time>
      </trkpt>
      <trkpt lat="47.55343" lon="7.16305">
        <ele>368.09</ele>
        <time>2018-02-21T11:54:15Z</time>
      </trkpt>
      <trkpt lat="47.55363" lon="7.163">
        <ele>366.82</ele>
        <time>2018-02-21T11:54:27Z</time>
      </trkpt>
      <trkpt lat="47.55383" lon="7.16295">
        <ele>367.49</ele>
        <time>2018-02-21T11:54:39Z</time>
      </trkpt>
      <trkpt lat="47.55402" lon="7.16292">
        <ele>367.09</ele>
        <time>2018-02-21T11:54:49Z</time>
      </trkpt>
      <trkpt lat="47.55421" lon="7.16289">
        <ele>366.07</ele>
        <time>2018-02-21T11:54:59Z</time>
      </trkpt>
      <trkpt lat="47.55442" lon="7.16284">
        <ele>365.01</ele>
        <time>2018-02-21T11:55:11Z</time>
      </trkpt>
      <trkpt lat="47.5546" lon="7.1628">
        <ele>364.8</ele>
        <time>2018-02-21T11:55:21Z</time>
      </trkpt>
      <trkpt lat="47.55481" lon="7.16278">
        <ele>364.09</ele>
        <time>2018-02-21T11:55:33Z</time>
      </trkpt>
      <trkpt lat="47.55491" lon="7.16255">
        <ele>363.09</ele>
        <time>2018-02-21T11:55:45Z</time>
      </trkpt>
      <trkpt lat="47.55484" lon="7.16229">
        <ele>362.58</ele>
        <time>2018-02-21T11:55:55Z</time>
      </trkpt>
      <trkpt lat="47.55472" lon="7.16209">
        <ele>359.29</ele>
        <time>2018-02-21T11:56:03Z</time>
      </trkpt>
      <trkpt lat="47.55463" lon="7.16182">
        <ele>358.49</ele>
        <time>2018-02-21T11:56:15Z</time>
      </trkpt>
      <trkpt lat="47.55474" lon="7.16206">
        <ele>358.55</ele>
        <time>2018-02-21T11:56:39Z</time>
      </trkpt>
      <trkpt lat="47.55485" lon="7.16231">
        <ele>359.79</ele>
        <time>2018-02-21T11:56:51Z</time>
      </trkpt>
      <trkpt lat="47.55497" lon="7.16255">
        <ele>360.78</ele>
        <time>2018-02-21T11:57:03Z</time>
      </trkpt>
      <trkpt lat="47.55513" lon="7.16272">
        <ele>361.49</ele>
        <time>2018-02-21T11:57:13Z</time>
      </trkpt>
      <trkpt lat="47.55533" lon="7.16282">
        <ele>361.77</ele>
        <time>2018-02-21T11:57:25Z</time>
      </trkpt>
      <trkpt lat="47.5555" lon="7.16293">
        <ele>363.4</ele>
        <time>2018-02-21T11:57:37Z</time>
      </trkpt>
      <trkpt lat="47.55568" lon="7.16304">
        <ele>364.79</ele>
        <time>2018-02-21T11:57:47Z</time>
      </trkpt>
      <trkpt lat="47.55584" lon="7.16318">
        <ele>367.76</ele>
        <time>2018-02-21T11:58:03Z</time>
      </trkpt>
      <trkpt lat="47.55593" lon="7.16342">
        <ele>368.72</ele>
        <time>2018-02-21T11:58:13Z</time>
      </trkpt>
      <trkpt lat="47.55597" lon="7.16371">
        <ele>367.8</ele>
        <time>2018-02-21T11:58:25Z</time>
      </trkpt>
      <trkpt lat="47.55592" lon="7.16398">
        <ele>370.4</ele>
        <time>2018-02-21T11:58:37Z</time>
      </trkpt>
      <trkpt lat="47.55586" lon="7.16428">
        <ele>371.7</ele>
        <time>2018-02-21T11:58:49Z</time>
      </trkpt>
      <trkpt lat="47.55579" lon="7.16454">
        <ele>373.19</ele>
        <time>2018-02-21T11:58:59Z</time>
      </trkpt>
      <trkpt lat="47.55578" lon="7.16482">
        <ele>374.49</ele>
        <time>2018-02-21T11:59:09Z</time>
      </trkpt>
      <trkpt lat="47.55584" lon="7.1651">
        <ele>375.79</ele>
        <time>2018-02-21T11:59:19Z</time>
      </trkpt>
      <trkpt lat="47.55591" lon="7.16536">
        <ele>375.79</ele>
        <time>2018-02-21T11:59:29Z</time>
      </trkpt>
      <trkpt lat="47.55598" lon="7.16565">
        <ele>375.79</ele>
        <time>2018-02-21T11:59:39Z</time>
      </trkpt>
      <trkpt lat="47.55578" lon="7.16571">
        <ele>372.91</ele>
        <time>2018-02-21T11:59:57Z</time>
      </trkpt>
      <trkpt lat="47.55559" lon="7.16576">
        <ele>371.88</ele>
        <time>2018-02-21T12:00:09Z</time>
      </trkpt>
      <trkpt lat="47.55537" lon="7.16579">
        <ele>370.8</ele>
        <time>2018-02-21T12:00:21Z</time>
      </trkpt>
      <trkpt lat="47.55517" lon="7.16585">
        <ele>370.09</ele>
        <time>2018-02-21T12:00:33Z</time>
      </trkpt>
      <trkpt lat="47.55496" lon="7.16587">
        <ele>369.79</ele>
        <time>2018-02-21T12:00:45Z</time>
      </trkpt>
      <trkpt lat="47.55477" lon="7.16589">
        <ele>369.81</ele>
        <time>2018-02-21T12:00:55Z</time>
      </trkpt>
      <trkpt lat="47.55458" lon="7.16592">
        <ele>369.79</ele>
        <time>2018-02-21T12:01:05Z</time>
      </trkpt>
      <trkpt lat="47.55438" lon="7.16601">
        <ele>370.49</ele>
        <time>2018-02-21T12:01:17Z</time>
      </trkpt>
      <trkpt lat="47.55418" lon="7.16615">
        <ele>372.49</ele>
        <time>2018-02-21T12:01:29Z</time>
      </trkpt>
      <trkpt lat="47.554" lon="7.16626">
        <ele>373.49</ele>
        <time>2018-02-21T12:01:41Z</time>
      </trkpt>
      <trkpt lat="47.55381" lon="7.16637">
        <ele>374.76</ele>
        <time>2018-02-21T12:01:53Z</time>
      </trkpt>
      <trkpt lat="47.55364" lon="7.16648">
        <ele>377.48</ele>
        <time>2018-02-21T12:02:03Z</time>
      </trkpt>
      <trkpt lat="47.55348" lon="7.16665">
        <ele>379.48</ele>
        <time>2018-02-21T12:02:15Z</time>
      </trkpt>
      <trkpt lat="47.55336" lon="7.16686">
        <ele>379.76</ele>
        <time>2018-02-21T12:02:25Z</time>
      </trkpt>
      <trkpt lat="47.55324" lon="7.16712">
        <ele>380.49</ele>
        <time>2018-02-21T12:02:37Z</time>
      </trkpt>
      <trkpt lat="47.55311" lon="7.16738">
        <ele>382.49</ele>
        <time>2018-02-21T12:02:49Z</time>
      </trkpt>
      <trkpt lat="47.55299" lon="7.16762">
        <ele>384.06</ele>
        <time>2018-02-21T12:03:01Z</time>
      </trkpt>
      <trkpt lat="47.55291" lon="7.16787">
        <ele>383.79</ele>
        <time>2018-02-21T12:03:11Z</time>
      </trkpt>
      <trkpt lat="47.55277" lon="7.1681">
        <ele>385</ele>
        <time>2018-02-21T12:03:23Z</time>
      </trkpt>
      <trkpt lat="47.55258" lon="7.16821">
        <ele>383.8</ele>
        <time>2018-02-21T12:03:36Z</time>
      </trkpt>
      <trkpt lat="47.5524" lon="7.16833">
        <ele>384.85</ele>
        <time>2018-02-21T12:03:48Z</time>
      </trkpt>
      <trkpt lat="47.55222" lon="7.16848">
        <ele>385.55</ele>
        <time>2018-02-21T12:04:02Z</time>
      </trkpt>
      <trkpt lat="47.55203" lon="7.16857">
        <ele>387.75</ele>
        <time>2018-02-21T12:04:16Z</time>
      </trkpt>
      <trkpt lat="47.55183" lon="7.16863">
        <ele>390.76</ele>
        <time>2018-02-21T12:04:30Z</time>
      </trkpt>
      <trkpt lat="47.55163" lon="7.16865">
        <ele>390.79</ele>
        <time>2018-02-21T12:04:40Z</time>
      </trkpt>
      <trkpt lat="47.55144" lon="7.16863">
        <ele>391.75</ele>
        <time>2018-02-21T12:04:52Z</time>
      </trkpt>
      <trkpt lat="47.55124" lon="7.16864">
        <ele>391.78</ele>
        <time>2018-02-21T12:05:04Z</time>
      </trkpt>
      <trkpt lat="47.55105" lon="7.16866">
        <ele>393.7</ele>
        <time>2018-02-21T12:05:14Z</time>
      </trkpt>
      <trkpt lat="47.55086" lon="7.16861">
        <ele>392.82</ele>
        <time>2018-02-21T12:05:24Z</time>
      </trkpt>
      <trkpt lat="47.55063" lon="7.16857">
        <ele>392.79</ele>
        <time>2018-02-21T12:05:36Z</time>
      </trkpt>
      <trkpt lat="47.55045" lon="7.16859">
        <ele>393.76</ele>
        <time>2018-02-21T12:05:46Z</time>
      </trkpt>
      <trkpt lat="47.55027" lon="7.16857">
        <ele>395.75</ele>
        <time>2018-02-21T12:05:58Z</time>
      </trkpt>
      <trkpt lat="47.55009" lon="7.16859">
        <ele>399.46</ele>
        <time>2018-02-21T12:06:10Z</time>
      </trkpt>
      <trkpt lat="47.5499" lon="7.16857">
        <ele>400.06</ele>
        <time>2018-02-21T12:06:20Z</time>
      </trkpt>
      <trkpt lat="47.54969" lon="7.16856">
        <ele>397.74</ele>
        <time>2018-02-21T12:06:32Z</time>
      </trkpt>
      <trkpt lat="47.5495" lon="7.16855">
        <ele>397.79</ele>
        <time>2018-02-21T12:06:40Z</time>
      </trkpt>
      <trkpt lat="47.54932" lon="7.1685">
        <ele>397.76</ele>
        <time>2018-02-21T12:06:50Z</time>
      </trkpt>
      <trkpt lat="47.54912" lon="7.16845">
        <ele>396.81</ele>
        <time>2018-02-21T12:07:04Z</time>
      </trkpt>
      <trkpt lat="47.54894" lon="7.16845">
        <ele>396.03</ele>
        <time>2018-02-21T12:07:14Z</time>
      </trkpt>
      <trkpt lat="47.54873" lon="7.1685">
        <ele>395.09</ele>
        <time>2018-02-21T12:07:22Z</time>
      </trkpt>
      <trkpt lat="47.54854" lon="7.16859">
        <ele>395.79</ele>
        <time>2018-02-21T12:07:34Z</time>
      </trkpt>
      <trkpt lat="47.54833" lon="7.16865">
        <ele>395.52</ele>
        <time>2018-02-21T12:07:44Z</time>
      </trkpt>
      <trkpt lat="47.54814" lon="7.16875">
        <ele>395.79</ele>
        <time>2018-02-21T12:07:56Z</time>
      </trkpt>
      <trkpt lat="47.54795" lon="7.16888">
        <ele>395.09</ele>
        <time>2018-02-21T12:08:08Z</time>
      </trkpt>
      <trkpt lat="47.54775" lon="7.16899">
        <ele>393.82</ele>
        <time>2018-02-21T12:08:20Z</time>
      </trkpt>
      <trkpt lat="47.54757" lon="7.16916">
        <ele>392.09</ele>
        <time>2018-02-21T12:08:32Z</time>
      </trkpt>
      <trkpt lat="47.5474" lon="7.16931">
        <ele>391.1</ele>
        <time>2018-02-21T12:08:42Z</time>
      </trkpt>
      <trkpt lat="47.54721" lon="7.16945">
        <ele>390.87</ele>
        <time>2018-02-21T12:08:54Z</time>
      </trkpt>
      <trkpt lat="47.54707" lon="7.16965">
        <ele>388.14</ele>
        <time>2018-02-21T12:09:04Z</time>
      </trkpt>
      <trkpt lat="47.54692" lon="7.16982">
        <ele>387.98</ele>
        <time>2018-02-21T12:09:14Z</time>
      </trkpt>
      <trkpt lat="47.54674" lon="7.16997">
        <ele>388.49</ele>
        <time>2018-02-21T12:09:26Z</time>
      </trkpt>
      <trkpt lat="47.54658" lon="7.17013">
        <ele>389.55</ele>
        <time>2018-02-21T12:09:38Z</time>
      </trkpt>
      <trkpt lat="47.54642" lon="7.17032">
        <ele>388.8</ele>
        <time>2018-02-21T12:09:50Z</time>
      </trkpt>
      <trkpt lat="47.54624" lon="7.1705">
        <ele>389.41</ele>
        <time>2018-02-21T12:10:02Z</time>
      </trkpt>
      <trkpt lat="47.54609" lon="7.17066">
        <ele>389.81</ele>
        <time>2018-02-21T12:10:12Z</time>
      </trkpt>
      <trkpt lat="47.54594" lon="7.17083">
        <ele>390.06</ele>
        <time>2018-02-21T12:10:22Z</time>
      </trkpt>
      <trkpt lat="47.5458" lon="7.171">
        <ele>389.09</ele>
        <time>2018-02-21T12:10:32Z</time>
      </trkpt>
      <trkpt lat="47.54564" lon="7.17117">
        <ele>389.09</ele>
        <time>2018-02-21T12:10:42Z</time>
      </trkpt>
      <trkpt lat="47.54548" lon="7.17137">
        <ele>387.8</ele>
        <time>2018-02-21T12:10:54Z</time>
      </trkpt>
      <trkpt lat="47.54532" lon="7.17153">
        <ele>387.79</ele>
        <time>2018-02-21T12:11:04Z</time>
      </trkpt>
      <trkpt lat="47.54515" lon="7.17167">
        <ele>387.79</ele>
        <time>2018-02-21T12:11:14Z</time>
      </trkpt>
      <trkpt lat="47.54502" lon="7.17185">
        <ele>388.49</ele>
        <time>2018-02-21T12:11:24Z</time>
      </trkpt>
      <trkpt lat="47.54487" lon="7.17202">
        <ele>388.77</ele>
        <time>2018-02-21T12:11:34Z</time>
      </trkpt>
      <trkpt lat="47.5447" lon="7.17217">
        <ele>388.73</ele>
        <time>2018-02-21T12:11:44Z</time>
      </trkpt>
      <trkpt lat="47.54453" lon="7.17236">
        <ele>388.51</ele>
        <time>2018-02-21T12:11:56Z</time>
      </trkpt>
      <trkpt lat="47.54437" lon="7.17252">
        <ele>387.79</ele>
        <time>2018-02-21T12:12:06Z</time>
      </trkpt>
      <trkpt lat="47.54421" lon="7.17266">
        <ele>387.79</ele>
        <time>2018-02-21T12:12:16Z</time>
      </trkpt>
      <trkpt lat="47.54405" lon="7.17279">
        <ele>386.82</ele>
        <time>2018-02-21T12:12:28Z</time>
      </trkpt>
      <trkpt lat="47.54385" lon="7.17296">
        <ele>386.79</ele>
        <time>2018-02-21T12:12:40Z</time>
      </trkpt>
      <trkpt lat="47.54366" lon="7.17312">
        <ele>388.51</ele>
        <time>2018-02-21T12:12:52Z</time>
      </trkpt>
      <trkpt lat="47.54351" lon="7.17325">
        <ele>390.75</ele>
        <time>2018-02-21T12:13:02Z</time>
      </trkpt>
      <trkpt lat="47.54334" lon="7.17343">
        <ele>390.81</ele>
        <time>2018-02-21T12:13:14Z</time>
      </trkpt>
      <trkpt lat="47.54318" lon="7.17363">
        <ele>391.78</ele>
        <time>2018-02-21T12:13:26Z</time>
      </trkpt>
      <trkpt lat="47.54302" lon="7.17381">
        <ele>391.76</ele>
        <time>2018-02-21T12:13:38Z</time>
      </trkpt>
      <trkpt lat="47.5429" lon="7.17402">
        <ele>391.85</ele>
        <time>2018-02-21T12:13:48Z</time>
      </trkpt>
      <trkpt lat="47.54275" lon="7.1742">
        <ele>391.79</ele>
        <time>2018-02-21T12:14:00Z</time>
      </trkpt>
      <trkpt lat="47.54258" lon="7.17441">
        <ele>391.73</ele>
        <time>2018-02-21T12:14:12Z</time>
      </trkpt>
      <trkpt lat="47.54245" lon="7.17465">
        <ele>392.76</ele>
        <time>2018-02-21T12:14:22Z</time>
      </trkpt>
      <trkpt lat="47.54233" lon="7.17488">
        <ele>391.79</ele>
        <time>2018-02-21T12:14:32Z</time>
      </trkpt>
      <trkpt lat="47.54218" lon="7.17508">
        <ele>391.79</ele>
        <time>2018-02-21T12:14:44Z</time>
      </trkpt>
      <trkpt lat="47.54205" lon="7.17526">
        <ele>392.7</ele>
        <time>2018-02-21T12:14:54Z</time>
      </trkpt>
      <trkpt lat="47.5419" lon="7.17546">
        <ele>389.13</ele>
        <time>2018-02-21T12:15:04Z</time>
      </trkpt>
      <trkpt lat="47.5418" lon="7.1757">
        <ele>389.51</ele>
        <time>2018-02-21T12:15:14Z</time>
      </trkpt>
      <trkpt lat="47.54166" lon="7.17592">
        <ele>389.49</ele>
        <time>2018-02-21T12:15:26Z</time>
      </trkpt>
      <trkpt lat="47.54156" lon="7.17615">
        <ele>389.79</ele>
        <time>2018-02-21T12:15:36Z</time>
      </trkpt>
      <trkpt lat="47.54144" lon="7.17638">
        <ele>389.85</ele>
        <time>2018-02-21T12:15:48Z</time>
      </trkpt>
      <trkpt lat="47.54136" lon="7.17662">
        <ele>389.79</ele>
        <time>2018-02-21T12:15:58Z</time>
      </trkpt>
      <trkpt lat="47.54121" lon="7.17682">
        <ele>389.77</ele>
        <time>2018-02-21T12:16:12Z</time>
      </trkpt>
      <trkpt lat="47.54103" lon="7.17695">
        <ele>389.79</ele>
        <time>2018-02-21T12:16:22Z</time>
      </trkpt>
      <trkpt lat="47.54083" lon="7.17696">
        <ele>383.83</ele>
        <time>2018-02-21T12:16:38Z</time>
      </trkpt>
      <trkpt lat="47.5407" lon="7.17676">
        <ele>381.82</ele>
        <time>2018-02-21T12:16:50Z</time>
      </trkpt>
      <trkpt lat="47.54053" lon="7.17658">
        <ele>380.1</ele>
        <time>2018-02-21T12:17:00Z</time>
      </trkpt>
      <trkpt lat="47.54037" lon="7.17639">
        <ele>376.91</ele>
        <time>2018-02-21T12:17:10Z</time>
      </trkpt>
      <trkpt lat="47.54022" lon="7.17618">
        <ele>377.79</ele>
        <time>2018-02-21T12:17:22Z</time>
      </trkpt>
      <trkpt lat="47.54008" lon="7.17599">
        <ele>377.79</ele>
        <time>2018-02-21T12:17:32Z</time>
      </trkpt>
      <trkpt lat="47.53993" lon="7.17576">
        <ele>375.12</ele>
        <time>2018-02-21T12:17:44Z</time>
      </trkpt>
      <trkpt lat="47.53977" lon="7.17557">
        <ele>375.7</ele>
        <time>2018-02-21T12:17:56Z</time>
      </trkpt>
      <trkpt lat="47.53967" lon="7.17535">
        <ele>374.8</ele>
        <time>2018-02-21T12:18:06Z</time>
      </trkpt>
      <trkpt lat="47.53952" lon="7.17514">
        <ele>374.11</ele>
        <time>2018-02-21T12:18:18Z</time>
      </trkpt>
      <trkpt lat="47.53938" lon="7.17494">
        <ele>372.82</ele>
        <time>2018-02-21T12:18:28Z</time>
      </trkpt>
      <trkpt lat="47.53928" lon="7.1747">
        <ele>372.78</ele>
        <time>2018-02-21T12:18:38Z</time>
      </trkpt>
      <trkpt lat="47.53917" lon="7.17446">
        <ele>372.52</ele>
        <time>2018-02-21T12:18:48Z</time>
      </trkpt>
      <trkpt lat="47.53905" lon="7.1742">
        <ele>372.79</ele>
        <time>2018-02-21T12:19:00Z</time>
      </trkpt>
      <trkpt lat="47.5389" lon="7.17398">
        <ele>372.73</ele>
        <time>2018-02-21T12:19:12Z</time>
      </trkpt>
      <trkpt lat="47.53872" lon="7.17387">
        <ele>372.88</ele>
        <time>2018-02-21T12:19:24Z</time>
      </trkpt>
      <trkpt lat="47.53879" lon="7.17357">
        <ele>372.79</ele>
        <time>2018-02-21T12:19:36Z</time>
      </trkpt>
      <trkpt lat="47.53889" lon="7.17331">
        <ele>371.79</ele>
        <time>2018-02-21T12:19:48Z</time>
      </trkpt>
      <trkpt lat="47.53902" lon="7.17304">
        <ele>371.79</ele>
        <time>2018-02-21T12:20:00Z</time>
      </trkpt>
      <trkpt lat="47.53914" lon="7.17282">
        <ele>371.79</ele>
        <time>2018-02-21T12:20:12Z</time>
      </trkpt>
      <trkpt lat="47.53926" lon="7.1726">
        <ele>371.79</ele>
        <time>2018-02-21T12:20:24Z</time>
      </trkpt>
      <trkpt lat="47.53937" lon="7.17237">
        <ele>372.76</ele>
        <time>2018-02-21T12:20:34Z</time>
      </trkpt>
      <trkpt lat="47.53954" lon="7.17225">
        <ele>370.8</ele>
        <time>2018-02-21T12:20:46Z</time>
      </trkpt>
      <trkpt lat="47.53974" lon="7.17233">
        <ele>369.18</ele>
        <time>2018-02-21T12:20:58Z</time>
      </trkpt>
      <trkpt lat="47.53991" lon="7.17245">
        <ele>368.7</ele>
        <time>2018-02-21T12:21:10Z</time>
      </trkpt>
      <trkpt lat="47.54009" lon="7.17241">
        <ele>369.49</ele>
        <time>2018-02-21T12:21:26Z</time>
      </trkpt>
      <trkpt lat="47.54022" lon="7.17223">
        <ele>372.48</ele>
        <time>2018-02-21T12:21:44Z</time>
      </trkpt>
      <trkpt lat="47.54035" lon="7.17202">
        <ele>374.78</ele>
        <time>2018-02-21T12:22:00Z</time>
      </trkpt>
      <trkpt lat="47.54046" lon="7.17177">
        <ele>373.79</ele>
        <time>2018-02-21T12:22:16Z</time>
      </trkpt>
      <trkpt lat="47.54055" lon="7.17151">
        <ele>375.49</ele>
        <time>2018-02-21T12:22:30Z</time>
      </trkpt>
      <trkpt lat="47.54065" lon="7.17126">
        <ele>372.2</ele>
        <time>2018-02-21T12:22:44Z</time>
      </trkpt>
      <trkpt lat="47.54076" lon="7.171">
        <ele>369.82</ele>
        <time>2018-02-21T12:23:00Z</time>
      </trkpt>
      <trkpt lat="47.54092" lon="7.17087">
        <ele>369.06</ele>
        <time>2018-02-21T12:23:18Z</time>
      </trkpt>
      <trkpt lat="47.54106" lon="7.17071">
        <ele>368.81</ele>
        <time>2018-02-21T12:23:32Z</time>
      </trkpt>
      <trkpt lat="47.54124" lon="7.17066">
        <ele>368.76</ele>
        <time>2018-02-21T12:23:50Z</time>
      </trkpt>
      <trkpt lat="47.54143" lon="7.17072">
        <ele>368.79</ele>
        <time>2018-02-21T12:24:06Z</time>
      </trkpt>
    </trkseg>
  </trk>
</gpx>